createdAt,value
2023-05-05T00:01:24.964Z,6.93
2023-05-05T00:03:51.688Z,8.10
2023-05-05T00:06:18.373Z,7.85
2023-05-05T00:08:44.985Z,6.22
2023-05-05T00:11:11.808Z,6.80
2023-05-05T00:13:38.908Z,6.95
2023-05-05T00:16:05.963Z,8.32
2023-05-05T00:18:33.769Z,7.28
2023-05-05T00:21:01.613Z,6.32
2023-05-05T00:23:28.415Z,7.03
2023-05-05T00:25:55.075Z,7.65
2023-05-05T00:28:22.055Z,6.18
2023-05-05T00:30:48.899Z,6.97
2023-05-05T00:33:15.808Z,7.70
2023-05-05T00:35:42.484Z,7.43
2023-05-05T00:38:09.417Z,8.02
2023-05-05T00:40:37.092Z,10.88
2023-05-05T00:43:05.248Z,10.30
2023-05-05T00:45:32.061Z,14.43
2023-05-05T00:48:00.408Z,9.27
2023-05-05T00:50:29.472Z,11.75
2023-05-05T00:53:00.304Z,11.35
2023-05-05T00:55:29.007Z,16.08
2023-05-05T00:57:56.830Z,16.52
2023-05-05T01:00:24.066Z,13.65
2023-05-05T01:02:51.924Z,14.18
2023-05-05T01:05:21.082Z,14.35
2023-05-05T01:08:16.545Z,17.48
2023-05-05T01:10:48.744Z,15.27
2023-05-05T01:13:54.434Z,16.67
2023-05-05T01:16:27.239Z,18.38
2023-05-05T01:19:22.021Z,17.88
2023-05-05T01:21:55.985Z,17.88
2023-05-05T01:24:48.613Z,20.15
2023-05-05T01:27:40.848Z,16.75
2023-05-05T01:30:27.228Z,19.23
2023-05-05T01:33:00.716Z,21.13
2023-05-05T01:35:31.789Z,22.23
2023-05-05T01:38:07.521Z,19.13
2023-05-05T01:40:40.955Z,18.25
2023-05-05T01:43:10.311Z,19.75
2023-05-05T01:45:41.508Z,21.50
2023-05-05T01:48:09.227Z,17.88
2023-05-05T01:50:36.991Z,21.30
2023-05-05T01:53:05.244Z,19.63
2023-05-05T01:55:33.442Z,18.30
2023-05-05T01:58:02.711Z,19.90
2023-05-05T02:00:31.122Z,17.17
2023-05-05T02:03:00.536Z,18.60
2023-05-05T02:05:28.258Z,19.25
2023-05-05T02:07:58.851Z,21.60
2023-05-05T02:10:27.070Z,18.92
2023-05-05T02:12:54.017Z,15.43
2023-05-05T02:15:22.770Z,19.02
2023-05-05T02:17:54.150Z,14.95
2023-05-05T02:20:23.870Z,15.27
2023-05-05T02:22:50.640Z,17.13
2023-05-05T02:25:20.126Z,17.95
2023-05-05T02:27:48.587Z,16.58
2023-05-05T02:30:19.396Z,18.92
2023-05-05T02:33:02.474Z,15.00
2023-05-05T02:35:36.569Z,15.40
2023-05-05T02:38:06.329Z,16.98
2023-05-05T02:40:40.675Z,17.20
2023-05-05T02:43:10.917Z,15.73
2023-05-05T02:45:38.355Z,18.10
2023-05-05T02:48:05.971Z,19.55
2023-05-05T02:50:37.092Z,16.23
2023-05-05T02:53:26.867Z,18.30
2023-05-05T02:56:14.898Z,18.42
2023-05-05T02:59:15.997Z,17.58
2023-05-05T03:02:10.756Z,16.83
2023-05-05T03:05:09.970Z,19.23
2023-05-05T03:08:02.215Z,17.48
2023-05-05T03:10:34.869Z,16.88
2023-05-05T03:13:03.027Z,15.90
2023-05-05T03:15:43.231Z,17.85
2023-05-05T03:18:11.555Z,16.75
2023-05-05T03:20:43.172Z,16.17
2023-05-05T03:23:13.404Z,15.88
2023-05-05T03:25:49.387Z,18.85
2023-05-05T03:28:38.377Z,17.25
2023-05-05T03:31:13.882Z,19.52
2023-05-05T03:33:40.493Z,17.83
2023-05-05T03:36:07.117Z,21.80
2023-05-05T03:38:34.490Z,21.00
2023-05-05T03:41:03.211Z,20.98
2023-05-05T03:43:30.812Z,18.75
2023-05-05T03:45:58.877Z,20.15
2023-05-05T03:48:25.815Z,21.60
2023-05-05T03:50:52.994Z,18.17
2023-05-05T03:53:21.487Z,18.90
2023-05-05T03:55:49.001Z,16.88
2023-05-05T03:58:16.368Z,17.42
2023-05-05T04:00:43.083Z,18.15
2023-05-05T04:03:10.912Z,17.63
2023-05-05T04:05:38.095Z,20.23
2023-05-05T04:08:05.263Z,19.13
2023-05-05T04:10:32.141Z,18.67
2023-05-05T04:12:58.896Z,20.92
2023-05-05T04:15:25.652Z,20.00
2023-05-05T04:17:52.765Z,19.83
2023-05-05T04:20:19.480Z,20.65
2023-05-05T04:22:46.451Z,17.45
2023-05-05T04:25:13.785Z,17.08
2023-05-05T04:27:40.527Z,18.13
2023-05-05T04:30:09.413Z,20.25
2023-05-05T04:32:38.016Z,16.25
2023-05-05T04:35:07.816Z,18.35
2023-05-05T04:37:34.502Z,19.85
2023-05-05T04:40:01.270Z,17.42
2023-05-05T04:42:30.519Z,16.48
2023-05-05T04:44:57.339Z,16.88
2023-05-05T04:47:24.306Z,16.73
2023-05-05T04:49:51.125Z,18.83
2023-05-05T04:52:18.396Z,18.50
2023-05-05T04:54:44.975Z,15.15
2023-05-05T04:57:11.607Z,16.50
2023-05-05T04:59:38.138Z,14.95
2023-05-05T05:02:04.862Z,18.65
2023-05-05T05:04:31.554Z,16.52
2023-05-05T05:06:59.380Z,13.77
2023-05-05T05:09:27.463Z,12.63
2023-05-05T05:11:54.076Z,12.93
2023-05-05T05:14:21.183Z,13.15
2023-05-05T05:16:51.048Z,15.45
2023-05-05T05:19:18.109Z,11.70
2023-05-05T05:21:44.723Z,15.00
2023-05-05T05:24:11.637Z,11.55
2023-05-05T05:26:38.921Z,14.02
2023-05-05T05:29:07.155Z,10.70
2023-05-05T05:31:34.482Z,8.68
2023-05-05T05:34:01.828Z,9.85
2023-05-05T05:36:28.552Z,9.32
2023-05-05T05:38:55.393Z,8.95
2023-05-05T05:41:22.049Z,8.60
2023-05-05T05:43:48.797Z,9.88
2023-05-05T05:46:15.468Z,9.63
2023-05-05T05:48:43.060Z,8.55
2023-05-05T05:51:09.725Z,10.15
2023-05-05T05:53:36.359Z,9.80
2023-05-05T05:56:03.204Z,8.98
2023-05-05T05:58:30.158Z,8.70
2023-05-05T06:00:59.442Z,13.15
2023-05-05T06:03:28.889Z,9.38
2023-05-05T06:05:56.553Z,11.32
2023-05-05T06:08:24.980Z,10.45
2023-05-05T06:10:53.172Z,11.63
2023-05-05T06:13:21.399Z,12.40
2023-05-05T06:15:50.513Z,8.80
2023-05-05T06:18:17.786Z,12.57
2023-05-05T06:20:44.838Z,10.50
2023-05-05T06:23:13.673Z,11.10
2023-05-05T06:25:44.953Z,12.23
2023-05-05T06:28:11.617Z,11.43
2023-05-05T06:30:38.203Z,12.27
2023-05-05T06:33:04.929Z,14.13
2023-05-05T06:35:31.977Z,11.55
2023-05-05T06:37:58.506Z,12.15
2023-05-05T06:40:25.191Z,13.25
2023-05-05T06:42:51.844Z,11.95
2023-05-05T06:45:23.506Z,12.13
2023-05-05T06:47:50.154Z,11.15
2023-05-05T06:50:16.832Z,14.02
2023-05-05T06:52:43.385Z,11.43
2023-05-05T06:55:10.132Z,14.95
2023-05-05T06:57:36.781Z,12.40
2023-05-05T07:00:05.987Z,16.10
2023-05-05T07:02:33.601Z,13.32
2023-05-05T07:05:00.327Z,14.07
2023-05-05T07:07:27.028Z,15.13
2023-05-05T07:09:53.648Z,13.88
2023-05-05T07:12:20.279Z,20.13
2023-05-05T07:14:47.054Z,15.93
2023-05-05T07:17:13.724Z,17.25
2023-05-05T07:19:40.307Z,16.48
2023-05-05T07:22:06.911Z,20.33
2023-05-05T07:24:33.614Z,15.95
2023-05-05T07:27:00.289Z,16.15
2023-05-05T07:29:27.079Z,18.65
2023-05-05T07:31:53.792Z,16.90
2023-05-05T07:34:20.426Z,16.38
2023-05-05T07:36:46.985Z,13.65
2023-05-05T07:39:15.203Z,14.13
2023-05-05T07:41:42.488Z,13.32
2023-05-05T07:44:09.167Z,16.30
2023-05-05T07:46:35.799Z,12.82
2023-05-05T07:49:02.392Z,13.90
2023-05-05T07:51:29.705Z,12.95
2023-05-05T07:53:56.662Z,12.63
2023-05-05T07:56:23.352Z,15.68
2023-05-05T07:58:50.048Z,13.55
2023-05-05T08:01:16.684Z,10.35
2023-05-05T08:03:43.495Z,12.93
2023-05-05T08:06:10.449Z,11.43
2023-05-05T08:08:37.891Z,13.93
2023-05-05T08:11:06.408Z,11.50
2023-05-05T08:13:33.230Z,11.07
2023-05-05T08:16:00.025Z,12.32
2023-05-05T08:18:27.012Z,13.40
2023-05-05T08:20:54.597Z,8.45
2023-05-05T08:23:21.565Z,10.38
2023-05-05T08:25:48.165Z,9.32
2023-05-05T08:28:14.771Z,8.27
2023-05-05T08:30:41.699Z,8.00
2023-05-05T08:33:08.322Z,8.93
2023-05-05T08:35:34.892Z,7.00
2023-05-05T08:38:01.388Z,6.60
2023-05-05T08:40:36.442Z,7.30
2023-05-05T08:43:03.954Z,7.60
2023-05-05T08:45:30.693Z,6.78
2023-05-05T08:47:58.370Z,7.85
2023-05-05T08:50:27.132Z,7.75
2023-05-05T08:52:58.103Z,7.53
2023-05-05T08:55:26.614Z,6.55
2023-05-05T08:57:56.498Z,9.85
2023-05-05T09:00:23.556Z,6.43
2023-05-05T09:02:50.840Z,6.10
2023-05-05T09:05:18.174Z,7.70
2023-05-05T09:07:46.691Z,5.90
2023-05-05T09:10:14.774Z,6.38
2023-05-05T09:12:41.595Z,6.75
2023-05-05T09:15:15.117Z,6.45
2023-05-05T09:17:42.334Z,6.60
2023-05-05T09:20:11.649Z,6.28
2023-05-05T09:22:43.585Z,7.28
2023-05-05T09:25:18.162Z,5.43
2023-05-05T09:27:47.058Z,7.40
2023-05-05T09:30:23.270Z,6.35
2023-05-05T09:32:51.802Z,6.53
2023-05-05T09:35:19.958Z,8.20
2023-05-05T09:37:46.939Z,7.47
2023-05-05T09:40:17.028Z,13.63
2023-05-05T09:42:44.678Z,9.10
2023-05-05T09:45:17.444Z,8.45
2023-05-05T09:47:45.921Z,5.25
2023-05-05T09:50:15.904Z,6.63
2023-05-05T09:52:43.237Z,6.82
2023-05-05T09:55:19.098Z,6.18
2023-05-05T09:57:47.262Z,5.03
2023-05-05T10:00:14.663Z,6.43
2023-05-05T10:02:41.951Z,5.88
2023-05-05T10:05:08.970Z,10.18
2023-05-05T10:07:36.836Z,8.60
2023-05-05T10:10:09.574Z,5.32
2023-05-05T10:12:37.440Z,7.10
2023-05-05T10:15:06.031Z,7.18
2023-05-05T10:17:53.981Z,6.50
2023-05-05T10:20:32.983Z,7.75
2023-05-05T10:23:02.487Z,5.40
2023-05-05T10:25:33.384Z,8.88
2023-05-05T10:28:04.333Z,7.13
2023-05-05T10:30:39.493Z,5.28
2023-05-05T10:33:30.147Z,9.82
2023-05-05T10:36:01.316Z,8.93
2023-05-05T10:38:30.869Z,5.85
2023-05-05T10:41:02.229Z,8.23
2023-05-05T10:43:30.165Z,5.77
2023-05-05T10:45:57.636Z,8.70
2023-05-05T10:49:13.521Z,6.78
2023-05-05T10:52:01.429Z,5.20
2023-05-05T10:54:45.555Z,4.20
2023-05-05T10:57:12.308Z,5.50
2023-05-05T10:59:39.979Z,6.70
2023-05-05T11:02:29.314Z,5.43
2023-05-05T11:05:10.512Z,5.95
2023-05-05T11:07:37.816Z,7.13
2023-05-05T11:10:07.088Z,3.95
2023-05-05T11:13:01.870Z,4.45
2023-05-05T11:15:31.520Z,4.85
2023-05-05T11:18:05.682Z,6.80
2023-05-05T11:20:40.082Z,5.53
2023-05-05T11:23:06.820Z,5.72
2023-05-05T11:25:37.234Z,5.05
2023-05-05T11:28:12.372Z,6.65
2023-05-05T11:30:58.542Z,3.80
2023-05-05T11:33:28.880Z,5.80
2023-05-05T11:36:05.064Z,8.35
2023-05-05T11:38:39.065Z,2.95
2023-05-05T11:41:33.229Z,4.60
2023-05-05T11:44:13.062Z,6.68
2023-05-05T11:46:43.193Z,13.02
2023-05-05T11:49:09.831Z,3.55
2023-05-05T11:51:36.524Z,3.15
2023-05-05T11:54:03.231Z,3.47
2023-05-05T11:56:29.829Z,15.60
2023-05-05T11:59:08.763Z,67.82
2023-05-05T12:01:44.807Z,2.67
2023-05-05T12:04:13.462Z,3.67
2023-05-05T12:06:40.865Z,2.60
2023-05-05T12:09:15.392Z,1.90
2023-05-05T12:11:52.912Z,2.53
2023-05-05T12:14:20.657Z,1.35
2023-05-05T12:16:57.027Z,4.47
2023-05-05T12:19:24.379Z,2.92
2023-05-05T12:21:54.112Z,5.03
2023-05-05T12:24:20.763Z,1.50
2023-05-05T12:26:47.279Z,2.85
2023-05-05T12:29:24.400Z,4.95
2023-05-05T12:31:51.414Z,2.10
2023-05-05T12:34:18.727Z,4.78
2023-05-05T12:36:45.923Z,2.47
2023-05-05T12:39:12.646Z,3.22
2023-05-05T12:41:39.409Z,3.45
2023-05-05T12:44:06.015Z,4.28
2023-05-05T12:46:47.632Z,2.97
2023-05-05T12:49:14.858Z,3.15
2023-05-05T12:51:54.092Z,4.15
2023-05-05T12:54:20.659Z,3.83
2023-05-05T12:56:47.917Z,4.00
2023-05-05T12:59:23.997Z,3.17
2023-05-05T13:01:52.630Z,2.42
2023-05-05T13:04:21.729Z,1.50
2023-05-05T13:06:50.051Z,2.97
2023-05-05T13:09:26.990Z,3.78
2023-05-05T13:11:54.662Z,2.20
2023-05-05T13:14:21.695Z,4.63
2023-05-05T13:16:48.343Z,3.85
2023-05-05T13:19:14.906Z,5.60
2023-05-05T13:21:41.914Z,4.43
2023-05-05T13:24:23.599Z,6.38
2023-05-05T13:26:55.807Z,4.90
2023-05-05T13:29:25.155Z,7.28
2023-05-05T13:31:53.907Z,3.90
2023-05-05T13:34:20.478Z,5.72
2023-05-05T13:36:47.153Z,4.05
2023-05-05T13:39:13.980Z,5.28
2023-05-05T13:41:40.571Z,5.95
2023-05-05T13:44:07.214Z,4.10
2023-05-05T13:46:33.818Z,4.15
2023-05-05T13:49:00.356Z,5.38
2023-05-05T13:51:26.973Z,3.42
2023-05-05T13:53:53.916Z,4.85
2023-05-05T13:56:20.480Z,5.35
2023-05-05T13:58:47.167Z,4.38
2023-05-05T14:01:13.822Z,4.88
2023-05-05T14:03:40.629Z,7.15
2023-05-05T14:06:08.997Z,4.50
2023-05-05T14:08:35.712Z,4.65
2023-05-05T14:11:03.165Z,5.15
2023-05-05T14:13:29.806Z,6.10
2023-05-05T14:15:58.299Z,5.40
2023-05-05T14:18:25.867Z,4.88
2023-05-05T14:20:52.512Z,5.07
2023-05-05T14:23:19.093Z,6.85
2023-05-05T14:25:45.690Z,3.22
2023-05-05T14:28:12.277Z,3.85
2023-05-05T14:30:39.572Z,2.85
2023-05-05T14:33:06.182Z,2.70
2023-05-05T14:35:32.796Z,2.08
2023-05-05T14:37:59.365Z,2.83
2023-05-05T14:40:25.912Z,2.58
2023-05-05T14:42:52.602Z,1.75
2023-05-05T14:45:19.212Z,2.22
2023-05-05T14:47:45.856Z,1.90
2023-05-05T14:50:14.133Z,2.40
2023-05-05T14:52:40.973Z,2.92
2023-05-05T14:55:08.246Z,2.65
2023-05-05T14:57:34.953Z,1.73
2023-05-05T15:00:01.523Z,3.22
2023-05-05T15:02:28.311Z,2.40
2023-05-05T15:04:54.868Z,2.95
2023-05-05T15:07:22.601Z,3.42
2023-05-05T15:09:49.290Z,2.58
2023-05-05T15:12:15.975Z,3.78
2023-05-05T15:14:42.569Z,1.30
2023-05-05T15:17:09.178Z,1.70
2023-05-05T15:19:35.821Z,3.97
2023-05-05T15:22:02.476Z,2.63
2023-05-05T15:24:29.006Z,1.88
2023-05-05T15:26:55.534Z,2.33
2023-05-05T15:29:22.061Z,1.25
2023-05-05T15:31:48.650Z,1.60
2023-05-05T15:34:15.194Z,2.40
2023-05-05T15:36:41.687Z,2.55
2023-05-05T15:39:08.418Z,2.40
2023-05-05T15:41:34.916Z,2.15
2023-05-05T15:44:03.060Z,2.17
2023-05-05T15:46:32.850Z,1.63
2023-05-05T15:48:59.672Z,1.85
2023-05-05T15:51:26.263Z,1.88
2023-05-05T15:53:53.343Z,2.70
2023-05-05T15:56:19.949Z,1.30
2023-05-05T15:58:46.543Z,3.00
2023-05-05T16:01:13.156Z,1.30
2023-05-05T16:03:39.821Z,1.23
2023-05-05T16:06:06.776Z,1.67
2023-05-05T16:08:33.342Z,1.10
2023-05-05T16:10:59.927Z,1.25
2023-05-05T16:13:26.661Z,2.33
2023-05-05T16:15:53.280Z,3.30
2023-05-05T16:18:19.875Z,2.75
2023-05-05T16:20:46.439Z,0.77
2023-05-05T16:23:12.974Z,1.65
2023-05-05T16:25:39.559Z,2.03
2023-05-05T16:28:06.117Z,1.40
2023-05-05T16:30:32.691Z,1.73
2023-05-05T16:32:59.424Z,1.65
2023-05-05T16:35:26.063Z,1.17
2023-05-05T16:37:52.676Z,1.80
2023-05-05T16:40:19.215Z,2.03
2023-05-05T16:42:45.891Z,2.13
2023-05-05T16:45:12.420Z,2.25
2023-05-05T16:47:39.287Z,2.00
2023-05-05T16:50:07.031Z,2.22
2023-05-05T16:52:33.572Z,1.27
2023-05-05T16:55:00.168Z,2.05
2023-05-05T16:57:26.908Z,1.85
2023-05-05T16:59:56.122Z,3.25
2023-05-05T17:02:22.802Z,3.50
2023-05-05T17:04:49.426Z,1.77
2023-05-05T17:07:16.049Z,3.67
2023-05-05T17:09:42.595Z,2.70
2023-05-05T17:12:09.198Z,1.50
2023-05-05T17:14:35.866Z,3.63
2023-05-05T17:17:02.433Z,1.95
2023-05-05T17:19:29.001Z,1.70
2023-05-05T17:21:55.696Z,1.58
2023-05-05T17:24:22.668Z,1.80
2023-05-05T17:26:50.051Z,1.50
2023-05-05T17:29:20.117Z,2.28
2023-05-05T17:31:46.861Z,2.38
2023-05-05T17:34:13.498Z,3.35
2023-05-05T17:36:40.447Z,2.67
2023-05-05T17:39:07.382Z,2.92
2023-05-05T17:41:33.952Z,1.88
2023-05-05T17:44:00.588Z,3.88
2023-05-05T17:46:27.375Z,3.42
2023-05-05T17:48:54.431Z,3.65
2023-05-05T17:51:21.059Z,5.65
2023-05-05T17:53:47.579Z,6.70
2023-05-05T17:56:14.148Z,7.32
2023-05-05T17:58:41.286Z,4.10
2023-05-05T18:01:08.003Z,8.45
2023-05-05T18:03:34.739Z,5.03
2023-05-05T18:06:02.294Z,5.45
2023-05-05T18:08:28.887Z,3.03
2023-05-05T18:10:55.390Z,5.18
2023-05-05T18:13:21.973Z,5.20
2023-05-05T18:15:48.502Z,4.07
2023-05-05T18:18:15.088Z,4.80
2023-05-05T18:20:41.575Z,4.97
2023-05-05T18:23:08.144Z,4.65
2023-05-05T18:25:34.682Z,3.65
2023-05-05T18:28:01.330Z,5.55
2023-05-05T18:30:28.007Z,4.93
2023-05-05T18:32:54.706Z,4.93
2023-05-05T18:35:21.408Z,4.05
2023-05-05T18:37:48.010Z,3.35
2023-05-05T18:40:14.695Z,7.13
2023-05-05T18:42:43.091Z,7.72
2023-05-05T18:45:11.160Z,5.65
2023-05-05T18:47:39.173Z,6.00
2023-05-05T18:50:06.520Z,5.05
2023-05-05T18:52:33.739Z,5.05
2023-05-05T18:55:00.304Z,4.47
2023-05-05T18:57:27.300Z,7.45
2023-05-05T18:59:53.789Z,11.10
2023-05-05T19:02:20.373Z,7.43
2023-05-05T19:04:47.056Z,6.30
2023-05-05T19:07:23.878Z,6.47
2023-05-05T19:09:58.101Z,7.88
2023-05-05T19:12:24.724Z,8.88
2023-05-05T19:14:51.276Z,7.30
2023-05-05T19:17:21.353Z,7.15
2023-05-05T19:19:47.921Z,7.50
2023-05-05T19:22:17.248Z,7.43
2023-05-05T19:24:43.872Z,7.47
2023-05-05T19:27:14.744Z,6.28
2023-05-05T19:32:09.643Z,7.10
2023-05-05T19:34:36.260Z,5.22
2023-05-05T19:37:02.778Z,5.80
2023-05-05T19:39:29.267Z,7.88
2023-05-05T19:41:55.776Z,8.55
2023-05-05T19:44:22.724Z,8.00
2023-05-05T19:46:49.332Z,7.93
2023-05-05T19:49:16.350Z,10.18
2023-05-05T19:51:43.733Z,7.45
2023-05-05T19:54:10.357Z,12.60
2023-05-05T19:56:36.994Z,11.45
2023-05-05T19:59:06.059Z,8.20
2023-05-05T20:01:33.843Z,8.48
2023-05-05T20:04:00.711Z,6.05
2023-05-05T20:06:27.462Z,6.65
2023-05-05T20:08:55.267Z,4.88
2023-05-05T20:11:22.617Z,4.00
2023-05-05T20:13:50.259Z,4.07
2023-05-05T20:16:17.576Z,5.38
2023-05-05T20:18:44.273Z,4.10
2023-05-05T20:21:11.123Z,4.25
2023-05-05T20:23:37.767Z,4.10
2023-05-05T20:26:04.483Z,5.43
2023-05-05T20:28:31.752Z,4.47
2023-05-05T20:30:58.416Z,3.58
2023-05-05T20:33:25.011Z,4.45
2023-05-05T20:35:51.704Z,5.78
2023-05-05T20:38:18.275Z,4.07
2023-05-05T20:40:44.801Z,5.35
2023-05-05T20:43:11.901Z,6.10
2023-05-05T20:45:38.481Z,8.55
2023-05-05T20:48:07.316Z,7.88
2023-05-05T20:50:39.443Z,6.82
2023-05-05T20:53:10.718Z,7.43
2023-05-05T20:55:37.278Z,5.78
2023-05-05T20:58:05.219Z,6.32
2023-05-05T21:00:31.795Z,8.20
2023-05-05T21:02:58.655Z,8.45
2023-05-05T21:05:25.859Z,11.57
2023-05-05T21:07:54.209Z,11.40
2023-05-05T21:10:20.831Z,7.00
2023-05-05T21:12:47.399Z,6.53
2023-05-05T21:15:14.204Z,5.55
2023-05-05T21:17:40.867Z,5.07
2023-05-05T21:20:08.607Z,4.72
2023-05-05T21:22:36.240Z,4.78
2023-05-05T21:25:17.145Z,5.45
2023-05-05T21:27:43.947Z,4.30
2023-05-05T21:30:11.565Z,4.93
2023-05-05T21:32:39.812Z,5.07
2023-05-05T21:35:08.561Z,4.80
2023-05-05T21:37:37.428Z,4.85
2023-05-05T21:40:12.125Z,5.32
2023-05-05T21:42:41.153Z,9.30
2023-05-05T21:45:08.399Z,4.60
2023-05-05T21:47:35.013Z,5.10
2023-05-05T21:50:01.891Z,6.22
2023-05-05T21:52:28.499Z,5.75
2023-05-05T21:55:00.621Z,4.45
2023-05-05T21:57:27.611Z,5.55
2023-05-05T21:59:54.196Z,5.75
2023-05-05T22:02:20.795Z,5.85
2023-05-05T22:04:48.882Z,5.22
2023-05-05T22:07:15.503Z,5.53
2023-05-05T22:09:42.848Z,5.50
2023-05-05T22:12:09.385Z,6.10
2023-05-05T22:14:35.965Z,6.22
2023-05-05T22:17:02.542Z,6.82
2023-05-05T22:19:29.098Z,7.43
2023-05-05T22:21:57.309Z,9.25
2023-05-05T22:24:23.880Z,8.57
2023-05-05T22:26:50.467Z,7.35
2023-05-05T22:29:17.063Z,7.05
2023-05-05T22:31:43.742Z,8.80
2023-05-05T22:34:10.328Z,8.13
2023-05-05T22:36:36.895Z,8.32
2023-05-05T22:39:03.483Z,9.82
2023-05-05T22:41:30.019Z,10.98
2023-05-05T22:43:56.600Z,10.82
2023-05-05T22:46:23.169Z,9.40
2023-05-05T22:48:49.714Z,11.18
2023-05-05T22:51:16.619Z,11.48
2023-05-05T22:53:43.191Z,12.93
2023-05-05T22:56:09.726Z,13.02
2023-05-05T22:58:36.252Z,12.90
2023-05-05T23:01:02.893Z,12.90
2023-05-05T23:03:29.521Z,14.70
2023-05-05T23:05:56.043Z,14.60
2023-05-05T23:08:23.955Z,14.57
2023-05-05T23:10:50.751Z,15.02
2023-05-05T23:13:17.413Z,18.63
2023-05-05T23:15:44.205Z,16.30
2023-05-05T23:18:10.916Z,15.35
2023-05-05T23:20:37.502Z,16.70
2023-05-05T23:23:04.726Z,15.80
2023-05-05T23:25:31.316Z,16.02
2023-05-05T23:27:57.934Z,15.30
2023-05-05T23:30:24.530Z,15.73
2023-05-05T23:32:51.058Z,16.23
2023-05-05T23:35:17.799Z,15.88
2023-05-05T23:37:44.349Z,15.57
2023-05-05T23:40:11.071Z,16.08
2023-05-05T23:42:37.669Z,15.82
2023-05-05T23:45:04.481Z,13.90
2023-05-05T23:47:31.138Z,16.33
2023-05-05T23:49:58.017Z,15.73
2023-05-05T23:52:24.550Z,15.55
2023-05-05T23:54:51.214Z,17.58
2023-05-05T23:57:17.722Z,18.10
2023-05-05T23:59:44.699Z,21.27
